sensor_id;sensor_type;location;lat;lon;timestamp;P1;durP1;ratioP1;P2;durP2;ratioP2
18378;SDS011;27025;51.986;5.984;2022-10-13T00:00:28;16.50;;;12.63;;
18378;SDS011;27025;51.986;5.984;2022-10-13T00:02:54;21.55;;;14.73;;
18378;SDS011;27025;51.986;5.984;2022-10-13T00:05:20;23.80;;;14.27;;
18378;SDS011;27025;51.986;5.984;2022-10-13T00:07:46;21.20;;;13.43;;
18378;SDS011;27025;51.986;5.984;2022-10-13T00:10:12;18.90;;;13.75;;
18378;SDS011;27025;51.986;5.984;2022-10-13T00:12:38;21.80;;;13.10;;
18378;SDS011;27025;51.986;5.984;2022-10-13T00:15:05;18.87;;;12.83;;
18378;SDS011;27025;51.986;5.984;2022-10-13T00:17:31;16.63;;;12.73;;
18378;SDS011;27025;51.986;5.984;2022-10-13T00:19:58;19.57;;;12.57;;
18378;SDS011;27025;51.986;5.984;2022-10-13T00:22:26;23.47;;;12.73;;
18378;SDS011;27025;51.986;5.984;2022-10-13T00:24:52;20.43;;;13.17;;
18378;SDS011;27025;51.986;5.984;2022-10-13T00:27:18;20.90;;;12.57;;
18378;SDS011;27025;51.986;5.984;2022-10-13T00:29:44;18.80;;;12.63;;
18378;SDS011;27025;51.986;5.984;2022-10-13T00:32:11;23.00;;;13.70;;
18378;SDS011;27025;51.986;5.984;2022-10-13T00:34:37;22.40;;;16.30;;
18378;SDS011;27025;51.986;5.984;2022-10-13T00:37:03;23.40;;;13.50;;
18378;SDS011;27025;51.986;5.984;2022-10-13T00:39:29;18.63;;;12.80;;
18378;SDS011;27025;51.986;5.984;2022-10-13T00:41:56;22.00;;;13.67;;
18378;SDS011;27025;51.986;5.984;2022-10-13T00:47:07;16.53;;;13.20;;
18378;SDS011;27025;51.986;5.984;2022-10-13T00:49:36;20.27;;;13.00;;
18378;SDS011;27025;51.986;5.984;2022-10-13T00:52:02;20.33;;;13.47;;
18378;SDS011;27025;51.986;5.984;2022-10-13T00:54:29;18.43;;;13.03;;
18378;SDS011;27025;51.986;5.984;2022-10-13T00:56:55;23.00;;;13.70;;
18378;SDS011;27025;51.986;5.984;2022-10-13T00:59:25;24.77;;;14.53;;
18378;SDS011;27025;51.986;5.984;2022-10-13T01:01:53;18.30;;;12.93;;
18378;SDS011;27025;51.986;5.984;2022-10-13T01:04:21;21.85;;;13.30;;
18378;SDS011;27025;51.986;5.984;2022-10-13T01:06:48;23.55;;;16.35;;
18378;SDS011;27025;51.986;5.984;2022-10-13T01:09:14;19.53;;;14.33;;
18378;SDS011;27025;51.986;5.984;2022-10-13T01:11:44;20.93;;;13.80;;
18378;SDS011;27025;51.986;5.984;2022-10-13T01:14:20;21.42;;;15.57;;
18378;SDS011;27025;51.986;5.984;2022-10-13T01:29:44;18.53;;;13.83;;
18378;SDS011;27025;51.986;5.984;2022-10-13T01:32:15;23.60;;;13.67;;
18378;SDS011;27025;51.986;5.984;2022-10-13T01:35:02;22.40;;;16.03;;
18378;SDS011;27025;51.986;5.984;2022-10-13T01:37:37;20.38;;;16.20;;
18378;SDS011;27025;51.986;5.984;2022-10-13T01:40:14;22.57;;;15.90;;
18378;SDS011;27025;51.986;5.984;2022-10-13T01:42:47;19.17;;;14.33;;
18378;SDS011;27025;51.986;5.984;2022-10-13T01:45:15;21.98;;;16.58;;
18378;SDS011;27025;51.986;5.984;2022-10-13T01:47:42;21.42;;;16.33;;
18378;SDS011;27025;51.986;5.984;2022-10-13T01:50:08;20.98;;;16.02;;
18378;SDS011;27025;51.986;5.984;2022-10-13T01:52:36;18.33;;;14.17;;
18378;SDS011;27025;51.986;5.984;2022-10-13T01:55:06;21.67;;;14.10;;
18378;SDS011;27025;51.986;5.984;2022-10-13T01:57:36;21.65;;;16.25;;
18378;SDS011;27025;51.986;5.984;2022-10-13T02:00:14;22.97;;;14.03;;
18378;SDS011;27025;51.986;5.984;2022-10-13T02:02:53;19.67;;;14.27;;
18378;SDS011;27025;51.986;5.984;2022-10-13T02:05:33;22.27;;;15.40;;
18378;SDS011;27025;51.986;5.984;2022-10-13T02:08:07;19.80;;;13.93;;
18378;SDS011;27025;51.986;5.984;2022-10-13T02:10:39;19.13;;;13.13;;
18378;SDS011;27025;51.986;5.984;2022-10-13T02:13:10;19.63;;;12.60;;
18378;SDS011;27025;51.986;5.984;2022-10-13T02:15:39;20.57;;;13.60;;
18378;SDS011;27025;51.986;5.984;2022-10-13T02:18:06;19.97;;;13.40;;
18378;SDS011;27025;51.986;5.984;2022-10-13T02:20:32;17.97;;;13.70;;
18378;SDS011;27025;51.986;5.984;2022-10-13T02:23:00;19.77;;;15.68;;
18378;SDS011;27025;51.986;5.984;2022-10-13T02:25:27;18.07;;;13.50;;
18378;SDS011;27025;51.986;5.984;2022-10-13T02:27:54;20.77;;;14.23;;
18378;SDS011;27025;51.986;5.984;2022-10-13T02:30:24;17.93;;;14.10;;
18378;SDS011;27025;51.986;5.984;2022-10-13T02:32:50;21.48;;;16.50;;
18378;SDS011;27025;51.986;5.984;2022-10-13T02:35:16;21.67;;;14.63;;
18378;SDS011;27025;51.986;5.984;2022-10-13T02:37:44;18.20;;;14.73;;
18378;SDS011;27025;51.986;5.984;2022-10-13T02:40:10;20.47;;;14.27;;
18378;SDS011;27025;51.986;5.984;2022-10-13T02:42:36;22.10;;;16.83;;
18378;SDS011;27025;51.986;5.984;2022-10-13T02:45:02;23.05;;;16.00;;
18378;SDS011;27025;51.986;5.984;2022-10-13T02:47:28;20.23;;;13.93;;
18378;SDS011;27025;51.986;5.984;2022-10-13T02:49:54;22.20;;;16.55;;
18378;SDS011;27025;51.986;5.984;2022-10-13T02:52:20;22.25;;;16.90;;
18378;SDS011;27025;51.986;5.984;2022-10-13T02:54:46;19.77;;;14.87;;
18378;SDS011;27025;51.986;5.984;2022-10-13T02:57:13;21.30;;;14.23;;
18378;SDS011;27025;51.986;5.984;2022-10-13T02:59:39;23.60;;;17.20;;
18378;SDS011;27025;51.986;5.984;2022-10-13T03:02:05;24.10;;;17.75;;
18378;SDS011;27025;51.986;5.984;2022-10-13T03:04:31;21.67;;;15.10;;
18378;SDS011;27025;51.986;5.984;2022-10-13T03:06:57;21.27;;;14.88;;
18378;SDS011;27025;51.986;5.984;2022-10-13T03:09:23;22.23;;;16.58;;
18378;SDS011;27025;51.986;5.984;2022-10-13T03:11:49;24.73;;;17.67;;
18378;SDS011;27025;51.986;5.984;2022-10-13T03:14:15;25.13;;;18.13;;
18378;SDS011;27025;51.986;5.984;2022-10-13T03:16:41;22.98;;;16.60;;
18378;SDS011;27025;51.986;5.984;2022-10-13T03:19:07;24.83;;;17.58;;
18378;SDS011;27025;51.986;5.984;2022-10-13T03:21:33;23.95;;;18.70;;
18378;SDS011;27025;51.986;5.984;2022-10-13T03:23:59;23.40;;;17.73;;
18378;SDS011;27025;51.986;5.984;2022-10-13T03:26:25;22.90;;;18.35;;
18378;SDS011;27025;51.986;5.984;2022-10-13T03:28:52;22.07;;;15.43;;
18378;SDS011;27025;51.986;5.984;2022-10-13T03:31:18;22.30;;;15.95;;
18378;SDS011;27025;51.986;5.984;2022-10-13T03:33:44;23.98;;;18.13;;
18378;SDS011;27025;51.986;5.984;2022-10-13T03:36:10;19.97;;;15.40;;
18378;SDS011;27025;51.986;5.984;2022-10-13T03:38:37;23.03;;;15.43;;
18378;SDS011;27025;51.986;5.984;2022-10-13T03:41:07;22.80;;;16.20;;
18378;SDS011;27025;51.986;5.984;2022-10-13T03:43:33;19.13;;;14.83;;
18378;SDS011;27025;51.986;5.984;2022-10-13T03:46:00;19.83;;;13.60;;
18378;SDS011;27025;51.986;5.984;2022-10-13T03:48:26;21.95;;;17.38;;
18378;SDS011;27025;51.986;5.984;2022-10-13T03:50:53;22.17;;;17.00;;
18378;SDS011;27025;51.986;5.984;2022-10-13T03:53:19;21.45;;;16.90;;
18378;SDS011;27025;51.986;5.984;2022-10-13T03:55:49;21.27;;;16.92;;
18378;SDS011;27025;51.986;5.984;2022-10-13T03:58:15;19.07;;;14.70;;
18378;SDS011;27025;51.986;5.984;2022-10-13T04:00:41;22.53;;;16.97;;
18378;SDS011;27025;51.986;5.984;2022-10-13T04:03:07;21.83;;;17.50;;
18378;SDS011;27025;51.986;5.984;2022-10-13T04:05:34;23.83;;;18.15;;
18378;SDS011;27025;51.986;5.984;2022-10-13T04:08:00;21.60;;;15.60;;
18378;SDS011;27025;51.986;5.984;2022-10-13T04:10:26;21.63;;;15.50;;
18378;SDS011;27025;51.986;5.984;2022-10-13T04:12:52;24.65;;;18.42;;
18378;SDS011;27025;51.986;5.984;2022-10-13T04:15:18;23.67;;;18.20;;
18378;SDS011;27025;51.986;5.984;2022-10-13T04:17:44;22.85;;;18.60;;
18378;SDS011;27025;51.986;5.984;2022-10-13T04:20:10;23.00;;;18.67;;
18378;SDS011;27025;51.986;5.984;2022-10-13T04:22:36;26.35;;;18.15;;
18378;SDS011;27025;51.986;5.984;2022-10-13T04:25:02;25.95;;;18.50;;
18378;SDS011;27025;51.986;5.984;2022-10-13T04:27:28;22.23;;;15.90;;
18378;SDS011;27025;51.986;5.984;2022-10-13T04:29:55;22.60;;;17.38;;
18378;SDS011;27025;51.986;5.984;2022-10-13T04:32:21;24.70;;;18.35;;
18378;SDS011;27025;51.986;5.984;2022-10-13T04:34:47;26.60;;;19.73;;
18378;SDS011;27025;51.986;5.984;2022-10-13T04:37:13;26.25;;;18.55;;
18378;SDS011;27025;51.986;5.984;2022-10-13T04:39:39;24.73;;;18.63;;
18378;SDS011;27025;51.986;5.984;2022-10-13T04:42:05;25.85;;;18.63;;
18378;SDS011;27025;51.986;5.984;2022-10-13T04:44:31;27.67;;;19.48;;
18378;SDS011;27025;51.986;5.984;2022-10-13T04:46:57;28.38;;;20.00;;
18378;SDS011;27025;51.986;5.984;2022-10-13T04:49:24;26.20;;;18.67;;
18378;SDS011;27025;51.986;5.984;2022-10-13T04:51:50;26.02;;;18.98;;
18378;SDS011;27025;51.986;5.984;2022-10-13T04:54:16;27.48;;;19.10;;
18378;SDS011;27025;51.986;5.984;2022-10-13T04:56:43;27.23;;;19.65;;
18378;SDS011;27025;51.986;5.984;2022-10-13T04:59:09;30.30;;;20.15;;
18378;SDS011;27025;51.986;5.984;2022-10-13T05:01:35;27.92;;;19.38;;
18378;SDS011;27025;51.986;5.984;2022-10-13T05:04:03;30.17;;;19.10;;
18378;SDS011;27025;51.986;5.984;2022-10-13T05:06:30;27.38;;;18.48;;
18378;SDS011;27025;51.986;5.984;2022-10-13T05:08:57;25.38;;;18.20;;
18378;SDS011;27025;51.986;5.984;2022-10-13T05:11:23;29.67;;;18.47;;
18378;SDS011;27025;51.986;5.984;2022-10-13T05:13:50;28.70;;;16.00;;
18378;SDS011;27025;51.986;5.984;2022-10-13T05:16:17;27.53;;;16.23;;
18378;SDS011;27025;51.986;5.984;2022-10-13T05:18:44;25.77;;;15.90;;
18378;SDS011;27025;51.986;5.984;2022-10-13T05:21:11;23.88;;;15.95;;
18378;SDS011;27025;51.986;5.984;2022-10-13T05:23:40;27.92;;;17.67;;
18378;SDS011;27025;51.986;5.984;2022-10-13T05:26:08;26.13;;;19.15;;
18378;SDS011;27025;51.986;5.984;2022-10-13T05:28:34;28.50;;;19.88;;
18378;SDS011;27025;51.986;5.984;2022-10-13T05:31:07;27.45;;;18.30;;
18378;SDS011;27025;51.986;5.984;2022-10-13T05:33:33;25.38;;;18.88;;
18378;SDS011;27025;51.986;5.984;2022-10-13T05:36:06;27.73;;;19.38;;
18378;SDS011;27025;51.986;5.984;2022-10-13T05:38:32;26.70;;;18.65;;
18378;SDS011;27025;51.986;5.984;2022-10-13T05:41:02;24.60;;;17.60;;
18378;SDS011;27025;51.986;5.984;2022-10-13T05:43:29;25.13;;;16.20;;
18378;SDS011;27025;51.986;5.984;2022-10-13T05:45:55;22.77;;;15.40;;
18378;SDS011;27025;51.986;5.984;2022-10-13T05:48:21;22.13;;;14.73;;
18378;SDS011;27025;51.986;5.984;2022-10-13T05:50:47;22.27;;;16.30;;
18378;SDS011;27025;51.986;5.984;2022-10-13T05:53:13;25.37;;;14.40;;
18378;SDS011;27025;51.986;5.984;2022-10-13T05:55:39;23.65;;;16.98;;
18378;SDS011;27025;51.986;5.984;2022-10-13T05:58:05;22.80;;;15.97;;
18378;SDS011;27025;51.986;5.984;2022-10-13T06:00:31;21.20;;;14.97;;
18378;SDS011;27025;51.986;5.984;2022-10-13T06:05:27;20.63;;;17.20;;
18378;SDS011;27025;51.986;5.984;2022-10-13T06:07:53;21.88;;;16.90;;
18378;SDS011;27025;51.986;5.984;2022-10-13T06:10:20;24.20;;;17.23;;
18378;SDS011;27025;51.986;5.984;2022-10-13T06:12:46;21.33;;;17.17;;
18378;SDS011;27025;51.986;5.984;2022-10-13T06:15:12;23.77;;;15.07;;
18378;SDS011;27025;51.986;5.984;2022-10-13T06:17:38;24.70;;;15.70;;
18378;SDS011;27025;51.986;5.984;2022-10-13T06:20:05;24.20;;;15.10;;
18378;SDS011;27025;51.986;5.984;2022-10-13T06:22:32;23.80;;;15.10;;
18378;SDS011;27025;51.986;5.984;2022-10-13T06:24:58;22.23;;;15.57;;
18378;SDS011;27025;51.986;5.984;2022-10-13T06:27:24;22.38;;;16.20;;
18378;SDS011;27025;51.986;5.984;2022-10-13T06:29:50;27.52;;;17.60;;
18378;SDS011;27025;51.986;5.984;2022-10-13T06:32:16;23.05;;;18.08;;
18378;SDS011;27025;51.986;5.984;2022-10-13T06:34:42;25.17;;;17.90;;
18378;SDS011;27025;51.986;5.984;2022-10-13T06:37:08;26.20;;;17.65;;
18378;SDS011;27025;51.986;5.984;2022-10-13T06:39:34;23.40;;;17.65;;
18378;SDS011;27025;51.986;5.984;2022-10-13T06:42:00;24.25;;;17.67;;
18378;SDS011;27025;51.986;5.984;2022-10-13T06:44:26;25.88;;;18.08;;
18378;SDS011;27025;51.986;5.984;2022-10-13T06:46:52;27.88;;;18.08;;
18378;SDS011;27025;51.986;5.984;2022-10-13T06:49:18;26.70;;;17.17;;
18378;SDS011;27025;51.986;5.984;2022-10-13T06:51:45;23.90;;;17.55;;
18378;SDS011;27025;51.986;5.984;2022-10-13T06:54:11;25.67;;;17.77;;
18378;SDS011;27025;51.986;5.984;2022-10-13T06:56:37;23.48;;;17.45;;
18378;SDS011;27025;51.986;5.984;2022-10-13T06:59:03;25.02;;;18.02;;
18378;SDS011;27025;51.986;5.984;2022-10-13T07:01:29;26.20;;;18.13;;
18378;SDS011;27025;51.986;5.984;2022-10-13T07:03:55;26.03;;;18.13;;
18378;SDS011;27025;51.986;5.984;2022-10-13T07:06:21;26.13;;;17.70;;
18378;SDS011;27025;51.986;5.984;2022-10-13T07:08:47;25.13;;;18.07;;
18378;SDS011;27025;51.986;5.984;2022-10-13T07:11:13;24.77;;;17.58;;
18378;SDS011;27025;51.986;5.984;2022-10-13T07:13:40;23.27;;;17.50;;
18378;SDS011;27025;51.986;5.984;2022-10-13T07:16:07;25.10;;;18.05;;
18378;SDS011;27025;51.986;5.984;2022-10-13T07:18:33;24.33;;;17.63;;
18378;SDS011;27025;51.986;5.984;2022-10-13T07:20:59;26.90;;;17.63;;
18378;SDS011;27025;51.986;5.984;2022-10-13T07:23:26;25.02;;;17.85;;
18378;SDS011;27025;51.986;5.984;2022-10-13T07:25:52;27.60;;;18.65;;
18378;SDS011;27025;51.986;5.984;2022-10-13T07:28:21;23.25;;;17.55;;
18378;SDS011;27025;51.986;5.984;2022-10-13T07:30:47;25.92;;;16.95;;
18378;SDS011;27025;51.986;5.984;2022-10-13T07:33:13;23.77;;;17.27;;
18378;SDS011;27025;51.986;5.984;2022-10-13T07:35:39;24.50;;;16.93;;
18378;SDS011;27025;51.986;5.984;2022-10-13T07:38:05;23.10;;;17.60;;
18378;SDS011;27025;51.986;5.984;2022-10-13T07:40:32;24.73;;;17.90;;
18378;SDS011;27025;51.986;5.984;2022-10-13T07:42:58;23.20;;;16.27;;
18378;SDS011;27025;51.986;5.984;2022-10-13T07:45:24;21.95;;;16.92;;
18378;SDS011;27025;51.986;5.984;2022-10-13T07:47:50;25.02;;;17.88;;
18378;SDS011;27025;51.986;5.984;2022-10-13T07:50:16;26.50;;;18.75;;
18378;SDS011;27025;51.986;5.984;2022-10-13T07:52:42;28.70;;;18.85;;
18378;SDS011;27025;51.986;5.984;2022-10-13T07:55:08;24.95;;;19.42;;
18378;SDS011;27025;51.986;5.984;2022-10-13T07:57:34;28.88;;;20.27;;
18378;SDS011;27025;51.986;5.984;2022-10-13T08:00:00;26.38;;;20.02;;
18378;SDS011;27025;51.986;5.984;2022-10-13T08:02:27;23.10;;;18.85;;
18378;SDS011;27025;51.986;5.984;2022-10-13T08:04:54;28.20;;;19.65;;
18378;SDS011;27025;51.986;5.984;2022-10-13T08:07:20;23.25;;;18.30;;
18378;SDS011;27025;51.986;5.984;2022-10-13T08:09:46;24.20;;;17.30;;
18378;SDS011;27025;51.986;5.984;2022-10-13T08:12:12;25.55;;;19.85;;
18378;SDS011;27025;51.986;5.984;2022-10-13T08:14:38;26.42;;;18.95;;
18378;SDS011;27025;51.986;5.984;2022-10-13T08:17:04;26.85;;;19.27;;
18378;SDS011;27025;51.986;5.984;2022-10-13T08:19:30;29.05;;;20.02;;
18378;SDS011;27025;51.986;5.984;2022-10-13T08:21:56;28.00;;;18.70;;
18378;SDS011;27025;51.986;5.984;2022-10-13T08:24:22;22.77;;;16.13;;
18378;SDS011;27025;51.986;5.984;2022-10-13T08:26:48;25.37;;;16.77;;
18378;SDS011;27025;51.986;5.984;2022-10-13T08:29:15;26.87;;;17.70;;
18378;SDS011;27025;51.986;5.984;2022-10-13T08:31:41;26.00;;;19.00;;
18378;SDS011;27025;51.986;5.984;2022-10-13T08:34:07;29.52;;;20.08;;
18378;SDS011;27025;51.986;5.984;2022-10-13T08:36:33;28.13;;;19.23;;
18378;SDS011;27025;51.986;5.984;2022-10-13T08:38:59;29.20;;;19.05;;
18378;SDS011;27025;51.986;5.984;2022-10-13T08:41:26;26.60;;;18.90;;
18378;SDS011;27025;51.986;5.984;2022-10-13T08:43:55;26.45;;;18.63;;
18378;SDS011;27025;51.986;5.984;2022-10-13T08:46:25;28.55;;;18.90;;
18378;SDS011;27025;51.986;5.984;2022-10-13T08:48:54;28.38;;;18.75;;
18378;SDS011;27025;51.986;5.984;2022-10-13T08:51:20;26.67;;;17.95;;
18378;SDS011;27025;51.986;5.984;2022-10-13T08:53:46;24.13;;;18.45;;
18378;SDS011;27025;51.986;5.984;2022-10-13T08:58:43;27.00;;;18.33;;
18378;SDS011;27025;51.986;5.984;2022-10-13T09:09:09;31.05;;;19.13;;
18378;SDS011;27025;51.986;5.984;2022-10-13T09:11:37;26.80;;;18.48;;
18378;SDS011;27025;51.986;5.984;2022-10-13T09:14:07;23.88;;;18.63;;
18378;SDS011;27025;51.986;5.984;2022-10-13T09:16:37;24.65;;;18.13;;
18378;SDS011;27025;51.986;5.984;2022-10-13T09:21:42;25.20;;;16.50;;
18378;SDS011;27025;51.986;5.984;2022-10-13T09:24:11;20.42;;;15.00;;
18378;SDS011;27025;51.986;5.984;2022-10-13T09:26:38;23.05;;;15.07;;
18378;SDS011;27025;51.986;5.984;2022-10-13T09:29:08;20.23;;;14.48;;
18378;SDS011;27025;51.986;5.984;2022-10-13T09:31:34;19.20;;;14.43;;
18378;SDS011;27025;51.986;5.984;2022-10-13T09:34:12;20.60;;;14.10;;
18378;SDS011;27025;51.986;5.984;2022-10-13T09:36:53;22.52;;;14.27;;
18378;SDS011;27025;51.986;5.984;2022-10-13T09:39:20;21.42;;;14.40;;
18378;SDS011;27025;51.986;5.984;2022-10-13T09:41:46;23.05;;;14.70;;
18378;SDS011;27025;51.986;5.984;2022-10-13T09:44:26;22.73;;;15.17;;
18378;SDS011;27025;51.986;5.984;2022-10-13T09:46:53;19.33;;;14.23;;
18378;SDS011;27025;51.986;5.984;2022-10-13T09:49:39;20.60;;;14.70;;
18378;SDS011;27025;51.986;5.984;2022-10-13T09:57:15;20.27;;;14.70;;
18378;SDS011;27025;51.986;5.984;2022-10-13T09:59:47;22.17;;;15.38;;
18378;SDS011;27025;51.986;5.984;2022-10-13T10:02:17;24.10;;;15.25;;
18378;SDS011;27025;51.986;5.984;2022-10-13T10:04:43;20.10;;;15.20;;
18378;SDS011;27025;51.986;5.984;2022-10-13T10:07:11;21.77;;;15.10;;
18378;SDS011;27025;51.986;5.984;2022-10-13T10:09:39;21.58;;;15.38;;
18378;SDS011;27025;51.986;5.984;2022-10-13T10:12:08;23.35;;;14.80;;
18378;SDS011;27025;51.986;5.984;2022-10-13T10:14:37;18.37;;;15.50;;
18378;SDS011;27025;51.986;5.984;2022-10-13T10:22:13;21.33;;;15.10;;
18378;SDS011;27025;51.986;5.984;2022-10-13T10:24:45;21.23;;;15.07;;
18378;SDS011;27025;51.986;5.984;2022-10-13T10:27:18;23.52;;;15.25;;
18378;SDS011;27025;51.986;5.984;2022-10-13T10:29:50;20.57;;;14.93;;
18378;SDS011;27025;51.986;5.984;2022-10-13T10:32:32;21.67;;;15.07;;
18378;SDS011;27025;51.986;5.984;2022-10-13T10:35:01;23.27;;;14.93;;
18378;SDS011;27025;51.986;5.984;2022-10-13T10:45:16;21.48;;;15.15;;
18378;SDS011;27025;51.986;5.984;2022-10-13T10:47:43;20.35;;;14.75;;
18378;SDS011;27025;51.986;5.984;2022-10-13T10:50:13;22.58;;;15.48;;
18378;SDS011;27025;51.986;5.984;2022-10-13T10:55:26;24.83;;;15.50;;
18378;SDS011;27025;51.986;5.984;2022-10-13T11:00:38;23.63;;;16.13;;
18378;SDS011;27025;51.986;5.984;2022-10-13T11:03:08;23.43;;;17.07;;
18378;SDS011;27025;51.986;5.984;2022-10-13T11:08:24;22.02;;;16.55;;
18378;SDS011;27025;51.986;5.984;2022-10-13T11:11:27;23.05;;;16.35;;
18378;SDS011;27025;51.986;5.984;2022-10-13T11:13:50;24.00;;;17.10;;
18378;SDS011;27025;51.986;5.984;2022-10-13T11:18:56;22.60;;;16.17;;
18378;SDS011;27025;51.986;5.984;2022-10-13T11:21:23;28.53;;;16.77;;
18378;SDS011;27025;51.986;5.984;2022-10-13T11:23:50;22.40;;;15.73;;
18378;SDS011;27025;51.986;5.984;2022-10-13T11:28:48;21.47;;;16.30;;
18378;SDS011;27025;51.986;5.984;2022-10-13T11:38:51;28.47;;;18.43;;
18378;SDS011;27025;51.986;5.984;2022-10-13T11:41:23;25.03;;;18.90;;
18378;SDS011;27025;51.986;5.984;2022-10-13T11:44:10;25.90;;;19.53;;
18378;SDS011;27025;51.986;5.984;2022-10-13T11:52:04;24.43;;;18.37;;
18378;SDS011;27025;51.986;5.984;2022-10-13T11:54:30;30.87;;;19.20;;
18378;SDS011;27025;51.986;5.984;2022-10-13T11:56:57;25.43;;;18.73;;
18378;SDS011;27025;51.986;5.984;2022-10-13T12:02:23;25.60;;;20.07;;
18378;SDS011;27025;51.986;5.984;2022-10-13T12:04:43;30.33;;;21.17;;
18378;SDS011;27025;51.986;5.984;2022-10-13T12:07:10;32.67;;;21.33;;
18378;SDS011;27025;51.986;5.984;2022-10-13T12:09:39;32.37;;;22.07;;
18378;SDS011;27025;51.986;5.984;2022-10-13T12:12:14;33.50;;;21.23;;
18378;SDS011;27025;51.986;5.984;2022-10-13T12:14:41;30.43;;;22.17;;
18378;SDS011;27025;51.986;5.984;2022-10-13T12:19:53;31.73;;;22.40;;
18378;SDS011;27025;51.986;5.984;2022-10-13T12:22:20;32.53;;;22.50;;
18378;SDS011;27025;51.986;5.984;2022-10-13T12:25:05;34.60;;;22.87;;
18378;SDS011;27025;51.986;5.984;2022-10-13T12:27:37;31.37;;;22.83;;
18378;SDS011;27025;51.986;5.984;2022-10-13T12:30:18;31.37;;;21.57;;
18378;SDS011;27025;51.986;5.984;2022-10-13T12:32:47;31.97;;;22.67;;
18378;SDS011;27025;51.986;5.984;2022-10-13T12:35:18;30.07;;;22.57;;
18378;SDS011;27025;51.986;5.984;2022-10-13T12:37:44;31.70;;;22.80;;
18378;SDS011;27025;51.986;5.984;2022-10-13T12:40:12;31.87;;;21.83;;
18378;SDS011;27025;51.986;5.984;2022-10-13T12:42:38;27.93;;;21.40;;
18378;SDS011;27025;51.986;5.984;2022-10-13T12:45:05;28.93;;;20.87;;
18378;SDS011;27025;51.986;5.984;2022-10-13T12:50:22;31.80;;;22.13;;
18378;SDS011;27025;51.986;5.984;2022-10-13T12:53:16;27.13;;;21.13;;
18378;SDS011;27025;51.986;5.984;2022-10-13T12:58:23;25.03;;;19.87;;
18378;SDS011;27025;51.986;5.984;2022-10-13T13:00:53;27.23;;;20.20;;
18378;SDS011;27025;51.986;5.984;2022-10-13T13:03:22;26.30;;;19.10;;
18378;SDS011;27025;51.986;5.984;2022-10-13T13:06:05;23.87;;;18.33;;
18378;SDS011;27025;51.986;5.984;2022-10-13T13:08:31;24.37;;;17.97;;
18378;SDS011;27025;51.986;5.984;2022-10-13T13:10:58;24.97;;;18.73;;
18378;SDS011;27025;51.986;5.984;2022-10-13T13:13:24;26.43;;;18.30;;
18378;SDS011;27025;51.986;5.984;2022-10-13T13:15:50;22.40;;;18.00;;
18378;SDS011;27025;51.986;5.984;2022-10-13T13:20:54;25.13;;;17.17;;
18378;SDS011;27025;51.986;5.984;2022-10-13T13:23:21;26.10;;;18.53;;
18378;SDS011;27025;51.986;5.984;2022-10-13T13:26:10;24.27;;;18.67;;
18378;SDS011;27025;51.986;5.984;2022-10-13T13:28:33;26.10;;;17.33;;
18378;SDS011;27025;51.986;5.984;2022-10-13T13:30:59;22.27;;;17.87;;
18378;SDS011;27025;51.986;5.984;2022-10-13T13:33:25;30.33;;;18.47;;
18378;SDS011;27025;51.986;5.984;2022-10-13T13:35:52;23.57;;;17.93;;
18378;SDS011;27025;51.986;5.984;2022-10-13T13:38:18;27.67;;;18.80;;
18378;SDS011;27025;51.986;5.984;2022-10-13T13:40:44;27.03;;;18.27;;
18378;SDS011;27025;51.986;5.984;2022-10-13T13:43:10;22.83;;;17.93;;
18378;SDS011;27025;51.986;5.984;2022-10-13T13:45:36;29.23;;;19.07;;
18378;SDS011;27025;51.986;5.984;2022-10-13T13:48:02;25.43;;;19.43;;
18378;SDS011;27025;51.986;5.984;2022-10-13T13:50:33;26.37;;;19.80;;
18378;SDS011;27025;51.986;5.984;2022-10-13T13:52:59;29.97;;;19.80;;
18378;SDS011;27025;51.986;5.984;2022-10-13T13:55:28;27.90;;;19.37;;
18378;SDS011;27025;51.986;5.984;2022-10-13T13:57:55;27.93;;;18.80;;
18378;SDS011;27025;51.986;5.984;2022-10-13T14:00:21;27.33;;;19.47;;
18378;SDS011;27025;51.986;5.984;2022-10-13T14:02:47;27.97;;;19.07;;
18378;SDS011;27025;51.986;5.984;2022-10-13T14:05:14;23.30;;;18.60;;
18378;SDS011;27025;51.986;5.984;2022-10-13T14:07:40;26.33;;;18.90;;
18378;SDS011;27025;51.986;5.984;2022-10-13T14:10:06;23.80;;;19.37;;
18378;SDS011;27025;51.986;5.984;2022-10-13T14:12:34;22.37;;;18.33;;
18378;SDS011;27025;51.986;5.984;2022-10-13T14:15:00;26.10;;;18.43;;
18378;SDS011;27025;51.986;5.984;2022-10-13T14:17:26;26.53;;;19.83;;
18378;SDS011;27025;51.986;5.984;2022-10-13T14:19:53;24.10;;;19.13;;
18378;SDS011;27025;51.986;5.984;2022-10-13T14:22:19;25.00;;;18.50;;
18378;SDS011;27025;51.986;5.984;2022-10-13T14:24:45;21.77;;;19.07;;
18378;SDS011;27025;51.986;5.984;2022-10-13T14:27:11;25.20;;;19.23;;
18378;SDS011;27025;51.986;5.984;2022-10-13T14:29:37;27.93;;;19.30;;
18378;SDS011;27025;51.986;5.984;2022-10-13T14:32:03;24.73;;;19.53;;
18378;SDS011;27025;51.986;5.984;2022-10-13T14:34:29;29.13;;;19.47;;
18378;SDS011;27025;51.986;5.984;2022-10-13T14:36:57;26.47;;;19.10;;
18378;SDS011;27025;51.986;5.984;2022-10-13T14:39:23;25.83;;;19.43;;
18378;SDS011;27025;51.986;5.984;2022-10-13T14:41:49;27.33;;;19.53;;
18378;SDS011;27025;51.986;5.984;2022-10-13T14:44:15;24.20;;;18.40;;
18378;SDS011;27025;51.986;5.984;2022-10-13T14:46:41;26.40;;;20.37;;
18378;SDS011;27025;51.986;5.984;2022-10-13T14:49:08;25.87;;;19.03;;
18378;SDS011;27025;51.986;5.984;2022-10-13T14:51:34;24.33;;;19.10;;
18378;SDS011;27025;51.986;5.984;2022-10-13T14:54:00;23.97;;;19.20;;
18378;SDS011;27025;51.986;5.984;2022-10-13T14:56:28;27.43;;;19.67;;
18378;SDS011;27025;51.986;5.984;2022-10-13T14:58:55;27.90;;;20.43;;
18378;SDS011;27025;51.986;5.984;2022-10-13T15:01:22;26.30;;;19.77;;
18378;SDS011;27025;51.986;5.984;2022-10-13T15:03:48;26.37;;;19.43;;
18378;SDS011;27025;51.986;5.984;2022-10-13T15:06:14;25.60;;;20.23;;
18378;SDS011;27025;51.986;5.984;2022-10-13T15:08:41;24.63;;;20.27;;
18378;SDS011;27025;51.986;5.984;2022-10-13T15:11:07;27.13;;;20.57;;
18378;SDS011;27025;51.986;5.984;2022-10-13T15:13:33;27.93;;;20.53;;
18378;SDS011;27025;51.986;5.984;2022-10-13T15:15:59;24.27;;;20.27;;
18378;SDS011;27025;51.986;5.984;2022-10-13T15:18:31;23.60;;;19.90;;
18378;SDS011;27025;51.986;5.984;2022-10-13T15:20:58;27.60;;;20.20;;
18378;SDS011;27025;51.986;5.984;2022-10-13T15:23:24;22.63;;;18.27;;
18378;SDS011;27025;51.986;5.984;2022-10-13T15:25:54;26.60;;;20.27;;
18378;SDS011;27025;51.986;5.984;2022-10-13T15:28:21;25.00;;;20.47;;
18378;SDS011;27025;51.986;5.984;2022-10-13T15:30:48;25.43;;;20.50;;
18378;SDS011;27025;51.986;5.984;2022-10-13T15:33:14;23.87;;;21.03;;
18378;SDS011;27025;51.986;5.984;2022-10-13T15:35:40;29.43;;;20.97;;
18378;SDS011;27025;51.986;5.984;2022-10-13T15:38:06;27.87;;;20.83;;
18378;SDS011;27025;51.986;5.984;2022-10-13T15:40:32;26.20;;;20.53;;
18378;SDS011;27025;51.986;5.984;2022-10-13T15:42:59;25.30;;;22.07;;
18378;SDS011;27025;51.986;5.984;2022-10-13T15:45:25;27.57;;;21.63;;
18378;SDS011;27025;51.986;5.984;2022-10-13T15:47:51;28.30;;;22.47;;
18378;SDS011;27025;51.986;5.984;2022-10-13T15:50:17;26.73;;;21.07;;
18378;SDS011;27025;51.986;5.984;2022-10-13T15:52:44;24.93;;;21.93;;